Ottumwa Regional Airport Ottumwa US
ICAO: KOTM
IATA: OTM
Category: Medium
Scheduled Services: No

Elevation: 845 ft
TransAlt. 18000 ft.

Airport Communications:
ASOS:124.175
CHICAGO CNTR:118.15
FORT DODGE RDO:122.4
CTAF/UNICOM:123

KOTM Zoom In..

Runways:

(A) RW 04 length 4600 ft width 100 ft
---- / hdg 42

(B) RW 13 length 5885 ft width 150 ft
---- / hdg 132

(C) RW 22 length 4600 ft width 100 ft
---- / hdg 222

(D) RW 31 length 5885 ft width 150 ft
ILS 109.50 / hdg 312

Location; KOTM
Day. 26 / Time. 04.27 Zulu
* Altimeter: 29.78
* Temperature: 23° c. 73.4°f.
* Wind from: 190° Speed 10 kn.
Dewpoint: 21° c.
Visibility: 10 Statute Miles.
Clouds: Few 4000 ft.
Clouds: Broken 8000 ft.
Clouds: Broken 1000 ft.

KOTM 260427Z AUTO 19010KT 10SM VCTS FEW040 BKN080 BKN100 23/21 A2978 RMK AO2 LTG DSNT E AND SW AND W RAE22 TSB0359E21 P0010 T02280206


Wind From 190°
Speed 10 kn.

 
 
jpsmedia.com for Web Design SOUNDCLOUD worldairports.se 2018   terms of use